Time;durP1;ratioP1;P1;durP2;ratioP2;P2;SDS_P1;SDS_P2;PMS_P1;PMS_P2;Temp;Humidity;BMP_temperature;BMP_pressure;BME280_temperature;BME280_humidity;BME280_pressure;Samples;Min_cycle;Max_cycle;Signal;HPM_P1;HPM_P2
2022/10/12 03:08:06;;;;;;;41.17;37.57;;;12.40;99.90;;;;;;5062132;23;21237;-73
2022/10/12 03:10:32;;;;;;;40.53;37.37;;;12.50;99.90;;;;;;4990459;28;20462;-72
2022/10/12 03:12:59;;;;;;;41.67;37.30;;;12.60;99.90;;;;;;4990033;28;20704;-73
2022/10/12 03:15:26;;;;;;;41.50;37.30;;;12.60;99.90;;;;;;4989841;28;20455;-72
2022/10/12 03:17:52;;;;;;;39.97;36.33;;;12.60;99.90;;;;;;4989378;28;20461;-73
2022/10/12 03:20:19;;;;;;;41.23;37.43;;;12.70;99.90;;;;;;4989779;28;20827;-73
2022/10/12 03:22:46;;;;;;;41.90;38.20;;;12.70;99.90;;;;;;4989567;28;20458;-73
2022/10/12 03:25:15;;;;;;;38.70;35.60;;;12.70;99.90;;;;;;4989593;28;20454;-72
2022/10/12 03:27:42;;;;;;;42.40;38.63;;;12.70;99.90;;;;;;4989479;28;20982;-73
2022/10/12 03:30:10;;;;;;;42.03;38.13;;;12.70;99.90;;;;;;4989882;28;20820;-72
2022/10/12 03:32:37;;;;;;;42.17;38.53;;;12.80;99.90;;;;;;4989939;28;20501;-73
2022/10/12 03:35:04;;;;;;;42.47;38.50;;;12.70;99.90;;;;;;4989417;28;20455;-73
2022/10/12 03:37:31;;;;;;;42.23;38.63;;;12.70;99.90;;;;;;4989410;28;20443;-73
2022/10/12 03:39:58;;;;;;;41.83;37.97;;;12.80;99.90;;;;;;4989547;28;20486;-73
2022/10/12 03:42:26;;;;;;;41.17;37.00;;;12.90;99.90;;;;;;4989568;28;20451;-73
2022/10/12 03:44:52;;;;;;;41.90;38.20;;;12.90;99.90;;;;;;4989855;28;20451;-72
2022/10/12 03:47:19;;;;;;;41.33;38.07;;;12.90;99.90;;;;;;4989377;28;20806;-73
2022/10/12 03:49:46;;;;;;;42.23;38.50;;;12.90;99.90;;;;;;4989155;28;20459;-73
2022/10/12 03:52:13;;;;;;;41.90;37.60;;;12.90;99.90;;;;;;4988713;28;20481;-73
2022/10/12 03:54:39;;;;;;;43.20;39.50;;;12.90;99.90;;;;;;4989263;28;20459;-73
2022/10/12 03:57:06;;;;;;;41.07;37.57;;;12.70;99.90;;;;;;4989040;28;20821;-73
2022/10/12 03:59:34;;;;;;;41.57;37.97;;;12.70;99.90;;;;;;4988931;28;20497;-73
2022/10/12 04:02:01;;;;;;;43.63;39.37;;;12.70;99.90;;;;;;4981197;28;21012;-73
2022/10/12 04:04:27;;;;;;;43.43;39.40;;;12.80;99.90;;;;;;4989192;28;20458;-72
2022/10/12 04:06:54;;;;;;;44.73;39.93;;;12.80;99.90;;;;;;4989267;28;20481;-72
2022/10/12 04:09:21;;;;;;;44.07;39.33;;;12.80;99.90;;;;;;4988888;28;20487;-72
2022/10/12 04:11:47;;;;;;;44.40;40.10;;;12.70;99.90;;;;;;4989115;28;20478;-72
2022/10/12 04:14:14;;;;;;;42.70;38.60;;;12.70;99.90;;;;;;4988938;28;20961;-72
2022/10/12 04:16:42;;;;;;;41.50;37.70;;;12.70;99.90;;;;;;4988812;28;20535;-72
2022/10/12 04:19:12;;;;;;;43.87;39.97;;;12.80;99.90;;;;;;4988886;28;20490;-73
2022/10/12 04:21:38;;;;;;;42.03;38.60;;;12.70;99.90;;;;;;4989121;28;20546;-73
2022/10/12 04:24:06;;;;;;;43.47;39.37;;;12.80;99.90;;;;;;4989213;28;20454;-72
2022/10/12 04:26:33;;;;;;;42.73;38.73;;;12.80;99.90;;;;;;4988899;28;20457;-81
2022/10/12 04:30:04;;;;;;;46.93;42.63;;;12.80;99.90;;;;;;4989390;28;20670;-73
2022/10/12 04:32:32;;;;;;;44.30;40.50;;;12.80;99.90;;;;;;4969696;28;20506;-73
2022/10/12 04:34:59;;;;;;;45.00;40.37;;;12.80;99.90;;;;;;5011450;28;20460;-74
2022/10/12 04:37:27;;;;;;;43.57;39.50;;;12.90;99.90;;;;;;5011024;28;20453;-73
2022/10/12 04:39:53;;;;;;;45.00;40.40;;;12.90;99.90;;;;;;5012420;28;20855;-73
2022/10/12 04:42:20;;;;;;;42.87;39.00;;;13.00;99.90;;;;;;5011910;28;20861;-73
2022/10/12 04:44:47;;;;;;;42.90;39.30;;;13.00;99.90;;;;;;5012424;28;20531;-73
2022/10/12 04:47:14;;;;;;;43.37;39.10;;;13.10;99.90;;;;;;5012185;28;20457;-73
2022/10/12 04:49:42;;;;;;;44.07;40.10;;;13.20;99.90;;;;;;5012484;28;20449;-73
2022/10/12 04:52:09;;;;;;;46.63;41.97;;;13.20;99.90;;;;;;5011033;28;20457;-73
2022/10/12 04:54:35;;;;;;;43.50;39.60;;;13.30;99.90;;;;;;5011845;28;20780;-74
2022/10/12 04:57:02;;;;;;;44.20;40.37;;;13.40;99.90;;;;;;5011938;28;20457;-73
2022/10/12 04:59:29;;;;;;;41.53;37.90;;;13.50;99.90;;;;;;5012092;28;20496;-73
2022/10/12 05:01:56;;;;;;;42.03;38.50;;;13.60;99.90;;;;;;5011596;28;20450;-72
2022/10/12 05:04:22;;;;;;;42.83;38.93;;;13.80;99.90;;;;;;5012414;28;20464;-73
2022/10/12 05:06:50;;;;;;;43.03;38.93;;;13.80;99.90;;;;;;5011875;28;20470;-74
2022/10/12 05:09:17;;;;;;;40.47;37.03;;;13.90;99.90;;;;;;5012096;28;20477;-73
2022/10/12 05:11:44;;;;;;;41.30;38.03;;;14.00;99.90;;;;;;5012211;28;20457;-72
2022/10/12 05:14:11;;;;;;;40.10;36.80;;;14.10;99.90;;;;;;5012154;28;20461;-74
2022/10/12 05:16:37;;;;;;;39.73;36.57;;;14.10;99.90;;;;;;5011838;28;20454;-73
2022/10/12 05:19:04;;;;;;;41.47;37.83;;;14.10;99.90;;;;;;5011815;28;20512;-73
2022/10/12 05:21:31;;;;;;;41.77;37.80;;;14.20;99.90;;;;;;5012351;28;20450;-73
2022/10/12 05:23:59;;;;;;;41.80;38.30;;;14.20;99.90;;;;;;5011937;28;20458;-73
2022/10/12 05:26:26;;;;;;;40.87;37.20;;;14.20;99.90;;;;;;5011812;28;20810;-72
2022/10/12 05:28:53;;;;;;;41.70;37.87;;;14.10;99.90;;;;;;5012006;28;20457;-73
2022/10/12 05:31:19;;;;;;;41.07;37.43;;;14.00;99.90;;;;;;5009337;28;20450;-74
2022/10/12 05:33:46;;;;;;;39.23;35.67;;;14.00;99.90;;;;;;5011141;28;20458;-73
2022/10/12 05:36:13;;;;;;;42.53;38.13;;;13.90;99.90;;;;;;5010907;28;20446;-73
2022/10/12 05:38:39;;;;;;;39.97;36.33;;;14.00;99.90;;;;;;5011600;28;20452;-73
2022/10/12 05:41:08;;;;;;;45.67;41.17;;;13.90;99.90;;;;;;5010733;28;20512;-74
2022/10/12 05:43:34;;;;;;;44.40;39.70;;;13.90;99.90;;;;;;5011238;28;20450;-73
2022/10/12 05:46:01;;;;;;;42.90;39.10;;;13.80;99.90;;;;;;5011110;28;20458;-73
2022/10/12 05:48:28;;;;;;;41.17;36.80;;;13.80;99.90;;;;;;5011237;28;20956;-73
2022/10/12 05:50:55;;;;;;;40.90;37.23;;;13.80;99.90;;;;;;5010964;28;20450;-73
2022/10/12 05:53:22;;;;;;;40.60;37.00;;;13.70;99.90;;;;;;5010883;28;20458;-73
2022/10/12 05:55:53;;;;;;;42.33;38.70;;;13.80;99.90;;;;;;5010834;28;20580;-73
2022/10/12 05:58:21;;;;;;;47.30;38.83;;;13.70;99.90;;;;;;5010918;28;20450;-72
2022/10/12 06:00:48;;;;;;;43.27;38.73;;;13.70;99.90;;;;;;5010450;28;20481;-72
2022/10/12 06:03:14;;;;;;;43.17;39.07;;;13.70;99.90;;;;;;5010920;28;20786;-73
2022/10/12 06:05:42;;;;;;;43.83;40.00;;;13.70;99.90;;;;;;5010330;28;20453;-73
2022/10/12 06:08:08;;;;;;;42.87;38.80;;;13.70;99.90;;;;;;5011258;28;20489;-73
2022/10/12 06:10:35;;;;;;;44.00;39.77;;;13.80;99.90;;;;;;5011417;28;20499;-73
2022/10/12 06:13:02;;;;;;;45.27;40.73;;;13.80;99.90;;;;;;5011452;28;20453;-73
2022/10/12 06:15:30;;;;;;;47.00;42.13;;;13.80;99.90;;;;;;5011284;28;20477;-73
2022/10/12 06:17:57;;;;;;;46.50;41.57;;;14.00;99.90;;;;;;5011312;28;20488;-73
2022/10/12 06:20:23;;;;;;;48.43;43.50;;;14.00;99.90;;;;;;5011447;28;20489;-73
2022/10/12 06:22:50;;;;;;;46.73;41.83;;;14.00;99.90;;;;;;5011203;28;20461;-73
2022/10/12 06:25:17;;;;;;;45.70;40.80;;;14.10;99.90;;;;;;5012891;28;20862;-73
2022/10/12 06:27:45;;;;;;;45.50;40.83;;;14.20;99.90;;;;;;5013113;28;20458;-72
2022/10/12 06:30:12;;;;;;;46.47;41.87;;;14.10;99.90;;;;;;5013483;28;20807;-72
2022/10/12 06:32:40;;;;;;;45.47;41.37;;;14.20;99.90;;;;;;5013135;28;20477;-72
2022/10/12 06:35:08;;;;;;;47.17;42.67;;;14.20;99.90;;;;;;5012058;28;20936;-71
2022/10/12 06:37:35;;;;;;;46.00;41.40;;;14.20;99.90;;;;;;5012262;28;20450;-73
2022/10/12 06:40:02;;;;;;;44.43;40.20;;;14.10;99.90;;;;;;5012191;28;20882;-73
2022/10/12 06:42:28;;;;;;;43.63;39.30;;;14.10;99.90;;;;;;5011200;28;20928;-73
2022/10/12 06:44:55;;;;;;;45.60;40.63;;;14.30;99.90;;;;;;5011723;28;20457;-73
2022/10/12 06:47:22;;;;;;;41.03;37.10;;;14.30;99.90;;;;;;5011289;28;21013;-73
2022/10/12 06:49:50;;;;;;;44.30;40.13;;;14.30;99.90;;;;;;5011318;28;20819;-73
2022/10/12 06:52:17;;;;;;;42.13;37.77;;;14.50;99.90;;;;;;5010927;28;21178;-72
2022/10/12 06:54:43;;;;;;;42.73;39.03;;;14.60;99.90;;;;;;5011361;28;20805;-71
2022/10/12 06:57:10;;;;;;;40.53;36.83;;;14.60;99.90;;;;;;5011189;28;21020;-73
2022/10/12 06:59:37;;;;;;;41.93;37.53;;;14.70;99.90;;;;;;5011347;28;20478;-72
2022/10/12 07:02:04;;;;;;;42.17;37.77;;;14.80;99.90;;;;;;5012301;28;20458;-72
2022/10/12 07:04:30;;;;;;;42.57;38.57;;;14.80;99.90;;;;;;5009249;28;20508;-73
2022/10/12 07:06:58;;;;;;;40.40;36.70;;;14.80;99.90;;;;;;5012419;28;20474;-73
2022/10/12 07:09:25;;;;;;;39.73;36.00;;;14.90;99.90;;;;;;5012252;28;20485;-73
2022/10/12 07:11:52;;;;;;;38.57;34.87;;;14.90;99.90;;;;;;5012253;28;20457;-73
2022/10/12 07:14:18;;;;;;;37.63;34.30;;;15.00;99.90;;;;;;5011695;28;20548;-72
2022/10/12 07:16:46;;;;;;;40.30;35.60;;;15.10;99.90;;;;;;5011360;28;20465;-72
2022/10/12 07:19:12;;;;;;;38.97;35.17;;;15.20;99.90;;;;;;5003092;28;20828;-73
2022/10/12 07:21:39;;;;;;;41.63;37.83;;;15.40;99.90;;;;;;4992675;28;20945;-73
2022/10/12 07:24:11;;;;;;;38.33;34.93;;;15.60;99.90;;;;;;5000442;28;20454;-72
2022/10/12 07:26:37;;;;;;;37.13;33.50;;;15.60;99.90;;;;;;4991158;28;20455;-73
2022/10/12 07:29:04;;;;;;;38.50;34.97;;;15.80;99.90;;;;;;5002864;28;20944;-73
2022/10/12 07:31:31;;;;;;;37.40;33.97;;;16.00;99.90;;;;;;5010583;28;20434;-73
2022/10/12 07:33:57;;;;;;;36.53;33.03;;;16.20;99.90;;;;;;5010455;28;20939;-73
2022/10/12 07:36:24;;;;;;;35.83;32.83;;;16.20;99.90;;;;;;5003703;28;20458;-72
2022/10/12 07:38:51;;;;;;;39.40;35.73;;;16.30;99.90;;;;;;4992271;28;20459;-72
2022/10/12 07:41:19;;;;;;;36.53;33.37;;;16.50;99.90;;;;;;4992783;28;20521;-73
2022/10/12 07:43:46;;;;;;;36.50;33.30;;;16.80;99.90;;;;;;4992395;28;20458;-72
2022/10/12 07:46:13;;;;;;;39.10;35.17;;;17.00;99.90;;;;;;4991676;28;20470;-72
2022/10/12 07:48:40;;;;;;;37.50;34.50;;;17.00;99.90;;;;;;4993141;28;20459;-73
2022/10/12 07:51:09;;;;;;;40.87;37.20;;;16.70;99.90;;;;;;4992292;28;20457;-72
2022/10/12 07:53:37;;;;;;;41.87;37.83;;;16.70;99.90;;;;;;4992241;28;20936;-72
2022/10/12 07:56:06;;;;;;;48.43;43.77;;;16.80;99.90;;;;;;5012339;28;20460;-72
2022/10/12 07:58:34;;;;;;;45.70;41.30;;;16.70;99.90;;;;;;5012347;28;20944;-72
2022/10/12 08:01:04;;;;;;;42.17;38.37;;;16.90;99.90;;;;;;5009616;28;20778;-73
2022/10/12 08:03:31;;;;;;;41.43;37.50;;;17.00;99.90;;;;;;5010066;28;20532;-72
2022/10/12 08:05:58;;;;;;;39.67;36.03;;;17.00;99.90;;;;;;5011397;28;20481;-72
2022/10/12 08:08:25;;;;;;;39.53;36.07;;;17.00;99.90;;;;;;5011489;28;20474;-72
2022/10/12 08:10:51;;;;;;;36.13;33.13;;;16.90;99.90;;;;;;5011215;28;20457;-72
2022/10/12 08:13:18;;;;;;;35.40;32.10;;;16.80;99.90;;;;;;5010140;28;20475;-72
2022/10/12 08:15:50;;;;;;;36.30;33.27;;;16.80;99.90;;;;;;5009994;28;20840;-73
2022/10/12 08:18:16;;;;;;;37.83;34.73;;;16.90;99.90;;;;;;5009517;28;20457;-72
2022/10/12 08:20:43;;;;;;;37.30;34.17;;;17.00;99.90;;;;;;5009146;28;20532;-73
2022/10/12 08:23:10;;;;;;;38.00;34.17;;;17.20;99.90;;;;;;5009719;28;20822;-72
2022/10/12 08:25:36;;;;;;;39.40;35.83;;;17.20;99.90;;;;;;5009658;28;20434;-73
2022/10/12 08:28:03;;;;;;;37.00;33.80;;;17.40;99.90;;;;;;4998475;28;20454;-73
2022/10/12 08:30:30;;;;;;;37.70;34.43;;;17.40;99.90;;;;;;4989697;28;20869;-73
2022/10/12 08:32:58;;;;;;;37.77;34.63;;;17.50;99.90;;;;;;4989629;28;20944;-73
2022/10/12 08:35:25;;;;;;;36.30;33.30;;;17.90;99.90;;;;;;4988347;28;20973;-72
2022/10/12 08:37:52;;;;;;;34.70;31.83;;;17.90;99.90;;;;;;4990279;28;20466;-73
2022/10/12 08:40:25;;;;;;;32.37;29.77;;;18.00;99.90;;;;;;4989589;28;20574;-73
2022/10/12 08:42:57;;;;;;;32.90;30.10;;;18.30;99.90;;;;;;4988578;28;20459;-73
2022/10/12 08:45:33;;;;;;;34.90;32.00;;;18.50;99.90;;;;;;4990112;28;20459;-73
2022/10/12 08:48:09;;;;;;;35.47;32.10;;;18.30;99.90;;;;;;4989951;28;20791;-73
2022/10/12 08:50:40;;;;;;;33.50;30.70;;;18.30;99.90;;;;;;4989890;28;20446;-73
2022/10/12 08:53:16;;;;;;;35.53;32.33;;;18.20;99.90;;;;;;4989763;28;20445;-73
2022/10/12 08:55:44;;;;;;;34.67;31.67;;;18.10;99.90;;;;;;4989518;28;20458;-73
2022/10/12 08:58:16;;;;;;;35.93;32.87;;;18.20;99.90;;;;;;4989493;28;20476;-73
2022/10/12 09:00:45;;;;;;;33.97;30.77;;;18.60;99.90;;;;;;4989263;28;20491;-73
2022/10/12 09:03:26;;;;;;;33.03;30.03;;;18.70;99.90;;;;;;4989275;28;20976;-73
2022/10/12 09:05:58;;;;;;;33.30;30.70;;;18.70;99.90;;;;;;4989409;28;20541;-73
2022/10/12 09:08:36;;;;;;;32.80;30.10;;;18.90;99.90;;;;;;4989614;28;20490;-73
2022/10/12 09:11:23;;;;;;;32.83;29.83;;;18.60;99.90;;;;;;4990066;28;20446;-72
2022/10/12 09:13:57;;;;;;;32.87;30.10;;;18.40;99.90;;;;;;4988323;28;20546;-72
2022/10/12 09:16:28;;;;;;;32.40;29.60;;;18.40;99.90;;;;;;4990817;28;20455;-72
2022/10/12 09:19:00;;;;;;;34.90;31.87;;;18.20;99.90;;;;;;4993338;28;20458;-72
2022/10/12 09:21:31;;;;;;;30.80;27.83;;;18.30;99.90;;;;;;4993107;28;20497;-73
2022/10/12 09:23:58;;;;;;;32.90;30.07;;;18.30;99.90;;;;;;4992610;28;20453;-73
2022/10/12 09:26:34;;;;;;;30.77;28.20;;;18.50;99.90;;;;;;4993469;28;20959;-73
2022/10/12 09:29:03;;;;;;;29.87;27.17;;;18.70;99.90;;;;;;5004659;28;20553;-73
2022/10/12 09:31:45;;;;;;;31.97;29.17;;;18.50;99.90;;;;;;5012638;28;20445;-73
2022/10/12 09:34:13;;;;;;;30.23;27.83;;;18.50;99.90;;;;;;5012324;28;20454;-73
2022/10/12 09:36:41;;;;;;;27.17;25.03;;;18.40;99.90;;;;;;5012295;28;20461;-72
2022/10/12 09:39:15;;;;;;;30.63;27.60;;;18.20;99.90;;;;;;5012563;28;20815;-72
2022/10/12 09:41:44;;;;;;;27.67;25.37;;;18.20;99.90;;;;;;5012029;28;20489;-73
2022/10/12 09:44:16;;;;;;;30.07;27.67;;;18.20;99.90;;;;;;5011973;28;20974;-73
2022/10/12 09:46:48;;;;;;;28.53;26.27;;;18.30;99.90;;;;;;5012178;28;20450;-73
2022/10/12 09:49:16;;;;;;;26.73;24.40;;;18.40;99.90;;;;;;5012125;28;20458;-73
2022/10/12 09:51:44;;;;;;;26.80;24.67;;;18.60;99.90;;;;;;5011350;28;20449;-73
2022/10/12 09:54:17;;;;;;;28.17;25.77;;;18.60;99.90;;;;;;5011318;28;20450;-73
2022/10/12 09:56:50;;;;;;;26.53;24.23;;;18.50;99.90;;;;;;5012287;28;20488;-73
2022/10/12 09:59:26;;;;;;;28.20;26.03;;;18.60;99.90;;;;;;5012002;28;20450;-73
2022/10/12 10:02:11;;;;;;;26.93;24.57;;;18.40;99.90;;;;;;5012383;28;20485;-73
2022/10/12 10:04:41;;;;;;;25.83;23.30;;;18.30;99.90;;;;;;5011988;28;20866;-73
2022/10/12 10:07:30;;;;;;;24.63;22.83;;;18.30;99.90;;;;;;5011861;28;20565;-73
2022/10/12 10:10:13;;;;;;;22.83;21.03;;;18.20;99.90;;;;;;5007385;28;20462;-73
2022/10/12 10:12:48;;;;;;;25.27;23.20;;;18.20;99.90;;;;;;5012220;28;20446;-73
2022/10/12 10:15:21;;;;;;;26.40;24.00;;;18.40;99.90;;;;;;5011778;28;21052;-72
2022/10/12 10:17:52;;;;;;;26.50;24.23;;;18.30;99.90;;;;;;5011989;28;20477;-73
2022/10/12 10:20:29;;;;;;;26.60;24.40;;;18.50;99.90;;;;;;5011453;28;20449;-73
2022/10/12 10:22:56;;;;;;;26.27;24.17;;;18.80;99.90;;;;;;5012301;28;20947;-73
2022/10/12 10:25:24;;;;;;;23.87;21.80;;;19.00;99.90;;;;;;5011993;28;20456;-73
2022/10/12 10:28:10;;;;;;;23.10;20.90;;;19.20;99.90;;;;;;5001623;28;20454;-73
2022/10/12 10:30:36;;;;;;;24.60;22.50;;;19.30;99.90;;;;;;4991717;28;20470;-73
2022/10/12 10:33:44;;;;;;;29.47;26.87;;;19.20;99.90;;;;;;4991317;28;20455;-72
2022/10/12 10:36:21;;;;;;;24.93;22.70;;;19.30;99.90;;;;;;4991619;28;20455;-73
2022/10/12 10:38:57;;;;;;;24.50;22.70;;;19.30;99.90;;;;;;4992007;28;20924;-73
2022/10/12 10:41:27;;;;;;;24.33;22.20;;;19.50;99.90;;;;;;4991968;28;20496;-73
2022/10/12 10:43:54;;;;;;;25.50;23.43;;;19.70;99.90;;;;;;4992137;28;20509;-73
2022/10/12 10:46:25;;;;;;;23.13;21.53;;;19.70;99.90;;;;;;4991795;28;20453;-74
2022/10/12 10:48:56;;;;;;;24.77;22.53;;;20.10;99.90;;;;;;4991908;28;20447;-73
2022/10/12 10:51:40;;;;;;;23.97;21.87;;;20.60;99.90;;;;;;4991958;28;20497;-73
2022/10/12 10:54:15;;;;;;;23.67;21.70;;;20.50;99.90;;;;;;4991697;28;20450;-73
2022/10/12 10:56:45;;;;;;;23.20;21.10;;;20.30;99.90;;;;;;4991535;28;20457;-73
2022/10/12 10:59:17;;;;;;;22.47;20.20;;;20.40;99.90;;;;;;4991556;28;20459;-72
2022/10/12 11:01:52;;;;;;;24.20;22.10;;;20.40;99.90;;;;;;4991293;28;20844;-73
2022/10/12 11:04:24;;;;;;;20.30;18.27;;;20.20;99.90;;;;;;4991466;28;20458;-72
2022/10/12 11:06:56;;;;;;;18.23;16.90;;;20.70;99.90;;;;;;4991309;28;20525;-73
2022/10/12 11:09:28;;;;;;;21.83;20.33;;;21.20;99.90;;;;;;4991178;28;20486;-73
2022/10/12 11:11:59;;;;;;;20.60;19.07;;;21.30;99.90;;;;;;4991254;28;20550;-73
2022/10/12 11:14:33;;;;;;;24.10;22.20;;;21.30;99.90;;;;;;4991548;28;20509;-73
2022/10/12 11:17:05;;;;;;;20.37;18.87;;;21.30;99.90;;;;;;4990996;28;20481;-74
2022/10/12 11:19:39;;;;;;;23.40;21.70;;;21.30;99.90;;;;;;4991046;28;20686;-74
2022/10/12 11:22:14;;;;;;;22.80;21.03;;;21.30;99.90;;;;;;4990968;28;20490;-73
2022/10/12 11:24:44;;;;;;;18.97;17.20;;;21.10;99.90;;;;;;4991069;28;20453;-74
2022/10/12 11:27:16;;;;;;;20.70;18.90;;;21.10;99.90;;;;;;4991018;28;20828;-73
2022/10/12 11:29:43;;;;;;;21.37;19.47;;;21.30;99.90;;;;;;5008339;28;20453;-73
2022/10/12 11:32:21;;;;;;;21.23;19.73;;;21.00;99.90;;;;;;5010660;28;20449;-74
2022/10/12 11:34:53;;;;;;;20.70;19.10;;;20.50;99.90;;;;;;5010329;28;20449;-73
2022/10/12 11:37:28;;;;;;;23.03;21.30;;;20.10;99.90;;;;;;5010410;28;20450;-73
2022/10/12 11:39:57;;;;;;;21.17;19.47;;;20.00;99.90;;;;;;5009743;28;20461;-73
2022/10/12 11:42:30;;;;;;;22.37;20.57;;;20.00;99.90;;;;;;5010523;28;20855;-74
2022/10/12 11:44:59;;;;;;;20.80;19.07;;;19.60;99.90;;;;;;5010254;28;20935;-73
2022/10/12 11:47:33;;;;;;;22.30;20.27;;;19.60;99.90;;;;;;5010208;28;20500;-74
2022/10/12 11:50:02;;;;;;;21.07;19.30;;;19.50;99.90;;;;;;5010213;28;20462;-74
2022/10/12 11:52:37;;;;;;;19.77;18.47;;;19.70;99.90;;;;;;5010077;28;20454;-73
2022/10/12 11:55:23;;;;;;;19.90;18.53;;;19.90;99.90;;;;;;5010179;28;20450;-73
2022/10/12 11:57:52;;;;;;;22.40;20.70;;;19.60;99.90;;;;;;5010007;28;20473;-73
2022/10/12 12:00:23;;;;;;;19.80;18.30;;;19.50;99.90;;;;;;5009847;28;20450;-73
2022/10/12 12:02:55;;;;;;;19.80;18.20;;;19.50;99.90;;;;;;5009866;28;20854;-73
2022/10/12 12:05:22;;;;;;;21.97;20.10;;;19.70;99.90;;;;;;5010141;28;20452;-73
2022/10/12 12:07:52;;;;;;;20.30;18.30;;;19.90;99.90;;;;;;5009194;28;20489;-73
2022/10/12 12:11:01;;;;;;;19.67;18.10;;;20.30;99.90;;;;;;5010099;28;20464;-74
2022/10/12 12:13:29;;;;;;;18.93;17.57;;;20.60;99.90;;;;;;5009935;28;20448;-73
2022/10/12 12:16:26;;;;;;;20.23;18.73;;;20.10;99.90;;;;;;5010097;28;20453;-73
2022/10/12 12:19:36;;;;;;;18.40;17.20;;;19.90;99.90;;;;;;4997789;28;20951;-73
2022/10/12 12:22:23;;;;;;;18.00;16.40;;;19.80;99.90;;;;;;5009600;28;20501;-73
2022/10/12 12:24:59;;;;;;;20.07;18.37;;;19.70;99.90;;;;;;5009790;28;20461;-73
2022/10/12 12:27:32;;;;;;;20.47;18.90;;;19.40;99.90;;;;;;5004056;28;20955;-73
2022/10/12 12:30:00;;;;;;;18.60;16.90;;;19.50;99.90;;;;;;4988823;28;20478;-73
2022/10/12 12:32:42;;;;;;;18.03;16.57;;;20.00;99.90;;;;;;4989696;28;20451;-74
2022/10/12 12:35:20;;;;;;;18.40;17.10;;;20.20;99.90;;;;;;4989667;28;20466;-73
2022/10/12 12:37:47;;;;;;;18.10;16.50;;;20.30;99.90;;;;;;4989194;28;20632;-73
2022/10/12 12:40:22;;;;;;;19.20;17.70;;;20.60;99.90;;;;;;4989366;28;20465;-73
2022/10/12 12:42:49;;;;;;;18.13;16.83;;;20.90;99.90;;;;;;4989274;28;20490;-73
2022/10/12 12:45:40;;;;;;;18.50;17.30;;;21.00;99.90;;;;;;4989256;28;20459;-73
2022/10/12 12:48:09;;;;;;;18.53;17.37;;;21.30;99.90;;;;;;4991285;28;20804;-74
2022/10/12 12:50:38;;;;;;;18.50;17.20;;;21.30;99.90;;;;;;5025714;28;20449;-73
2022/10/12 12:53:10;;;;;;;18.03;16.70;;;20.70;99.90;;;;;;5032466;28;20444;-73
2022/10/12 12:56:17;;;;;;;17.10;15.90;;;20.40;99.90;;;;;;5032905;28;20448;-73
2022/10/12 12:59:08;;;;;;;16.33;15.23;;;20.20;99.90;;;;;;4951926;29;20508;-72
2022/10/12 13:01:56;;;;;;;17.63;16.43;;;19.90;99.90;;;;;;5031835;28;20491;-72
2022/10/12 13:04:39;;;;;;;19.40;18.10;;;20.00;99.90;;;;;;5032524;28;20934;-73
2022/10/12 13:07:36;;;;;;;18.47;17.40;;;20.70;99.90;;;;;;5032714;28;20469;-72
2022/10/12 13:10:28;;;;;;;17.57;16.40;;;21.40;99.90;;;;;;4999077;28;20459;-73
2022/10/12 13:13:22;;;;;;;17.90;16.70;;;21.70;99.90;;;;;;5033155;28;20441;-72
2022/10/12 13:16:02;;;;;;;16.77;15.67;;;21.30;99.90;;;;;;5033160;28;20455;-72
2022/10/12 13:18:47;;;;;;;17.90;16.70;;;20.90;99.90;;;;;;5032835;28;20460;-72
2022/10/12 13:21:18;;;;;;;18.63;17.43;;;20.80;99.90;;;;;;5028315;28;20942;-72
2022/10/12 13:23:47;;;;;;;18.37;17.00;;;21.20;99.90;;;;;;5010857;28;20456;-73
2022/10/12 13:26:20;;;;;;;20.47;17.47;;;21.50;99.90;;;;;;5012793;28;20487;-73
2022/10/12 13:28:49;;;;;;;19.77;17.80;;;21.10;99.90;;;;;;5012773;28;20437;-73
2022/10/12 13:31:21;;;;;;;17.97;16.57;;;20.70;99.90;;;;;;5012865;28;20963;-72
2022/10/12 13:34:00;;;;;;;17.73;16.43;;;20.70;99.90;;;;;;5012807;28;20451;-72
2022/10/12 13:36:30;;;;;;;16.73;15.40;;;21.00;99.90;;;;;;5012763;28;20453;-73
2022/10/12 13:38:58;;;;;;;17.70;16.30;;;21.30;99.90;;;;;;5001161;28;20454;-72
2022/10/12 13:41:29;;;;;;;18.60;17.30;;;21.10;99.90;;;;;;5006078;28;20453;-72
2022/10/12 13:43:58;;;;;;;17.63;16.60;;;20.70;99.90;;;;;;4993403;28;20875;-72
2022/10/12 13:46:39;;;;;;;17.07;15.97;;;20.50;99.90;;;;;;5000106;28;20825;-72
2022/10/12 13:49:13;;;;;;;18.00;16.50;;;20.10;99.90;;;;;;5012824;28;20465;-72
2022/10/12 13:51:41;;;;;;;19.40;17.63;;;20.10;99.90;;;;;;5012626;28;20449;-72
2022/10/12 13:54:15;;;;;;;18.57;16.87;;;19.60;99.90;;;;;;5011004;28;20943;-72
2022/10/12 13:56:42;;;;;;;17.77;16.67;;;19.40;99.90;;;;;;4992966;28;20465;-71
2022/10/12 13:59:17;;;;;;;15.77;14.70;;;19.50;99.90;;;;;;4993258;28;20459;-72
2022/10/12 14:01:49;;;;;;;17.50;16.30;;;19.50;99.90;;;;;;4991937;28;20497;-72
2022/10/12 14:04:16;;;;;;;16.60;15.53;;;19.40;99.90;;;;;;4992700;28;20560;-72
2022/10/12 14:06:47;;;;;;;16.63;15.53;;;19.20;99.90;;;;;;5007933;28;20474;-71
2022/10/12 14:09:18;;;;;;;16.60;15.47;;;19.40;99.90;;;;;;5010911;28;20489;-72
2022/10/12 14:11:45;;;;;;;16.90;15.80;;;19.40;99.90;;;;;;5002113;28;20450;-74
2022/10/12 14:14:19;;;;;;;16.57;15.47;;;19.40;99.90;;;;;;5000458;28;20446;-72
2022/10/12 14:16:46;;;;;;;17.13;16.03;;;19.30;99.90;;;;;;5000782;28;20477;-73
2022/10/12 14:19:21;;;;;;;16.70;15.63;;;19.40;99.90;;;;;;5002363;28;20449;-72
2022/10/12 14:21:48;;;;;;;17.53;16.33;;;19.50;99.90;;;;;;5002330;28;20859;-73
2022/10/12 14:24:18;;;;;;;19.67;18.30;;;19.40;99.90;;;;;;5000772;28;20809;-73
2022/10/12 14:26:51;;;;;;;18.33;16.90;;;19.30;99.90;;;;;;5000860;28;20842;-72
2022/10/12 14:29:34;;;;;;;18.70;17.40;;;19.20;99.90;;;;;;5001086;28;20785;-73
2022/10/12 14:32:03;;;;;;;17.97;16.77;;;19.20;99.90;;;;;;5001363;28;20985;-73
2022/10/12 14:34:41;;;;;;;19.10;17.70;;;19.00;99.90;;;;;;5000131;28;21234;-73
2022/10/12 14:37:23;;;;;;;17.60;16.50;;;18.90;99.90;;;;;;5000613;28;20446;-72
2022/10/12 14:39:58;;;;;;;18.80;17.20;;;18.70;99.90;;;;;;5002026;28;20438;-72
2022/10/12 14:42:29;;;;;;;19.83;18.53;;;18.70;99.90;;;;;;5001854;28;20485;-74
2022/10/12 14:44:57;;;;;;;17.90;16.50;;;18.70;99.90;;;;;;5000566;28;20514;-73
2022/10/12 14:47:27;;;;;;;17.77;16.00;;;18.70;99.90;;;;;;5000968;28;20446;-74
2022/10/12 14:49:57;;;;;;;17.60;16.60;;;18.70;99.90;;;;;;5000330;28;20932;-73
2022/10/12 14:52:26;;;;;;;17.10;16.03;;;18.80;99.90;;;;;;5000775;28;20438;-72
2022/10/12 14:54:54;;;;;;;18.20;16.80;;;18.80;99.90;;;;;;5001367;28;20445;-72
2022/10/12 14:57:22;;;;;;;17.27;15.90;;;18.70;99.90;;;;;;5000922;28;20456;-72
2022/10/12 14:59:49;;;;;;;18.47;17.37;;;18.70;99.90;;;;;;4999878;28;20443;-73
2022/10/12 15:02:21;;;;;;;18.53;17.27;;;18.60;99.90;;;;;;4991597;28;21004;-73
2022/10/12 15:04:49;;;;;;;18.43;17.10;;;18.60;99.90;;;;;;4988580;28;20442;-73
2022/10/12 15:07:17;;;;;;;17.17;15.90;;;18.60;99.90;;;;;;4990766;28;21036;-73
2022/10/12 15:09:44;;;;;;;17.73;16.43;;;18.60;99.90;;;;;;4991019;28;20463;-73
2022/10/12 15:12:13;;;;;;;19.07;17.67;;;18.50;99.90;;;;;;4991039;28;20538;-75
2022/10/12 15:14:41;;;;;;;20.03;18.73;;;18.50;99.90;;;;;;4990276;28;20451;-74
2022/10/12 15:17:10;;;;;;;17.90;16.27;;;18.60;99.90;;;;;;4991211;28;20459;-74
2022/10/12 15:19:38;;;;;;;16.70;15.60;;;18.50;99.90;;;;;;4991138;28;20469;-73
2022/10/12 15:22:05;;;;;;;19.27;17.80;;;18.50;99.90;;;;;;4991141;28;20490;-73
2022/10/12 15:24:32;;;;;;;18.93;17.50;;;18.40;99.90;;;;;;4990787;28;20463;-74
2022/10/12 15:26:59;;;;;;;19.53;18.10;;;18.30;99.90;;;;;;4990756;28;20828;-73
2022/10/12 15:29:26;;;;;;;19.83;18.33;;;18.30;99.90;;;;;;4990898;28;20454;-73
2022/10/12 15:31:52;;;;;;;17.90;16.50;;;18.30;99.90;;;;;;4990660;28;20446;-74
2022/10/12 15:34:19;;;;;;;18.57;17.30;;;18.30;99.90;;;;;;4990008;28;20959;-73
2022/10/12 15:36:48;;;;;;;20.90;19.03;;;18.10;99.90;;;;;;4990764;28;20447;-73
2022/10/12 15:39:15;;;;;;;18.23;17.00;;;18.10;99.90;;;;;;4990446;28;20455;-74
2022/10/12 15:41:41;;;;;;;19.90;18.23;;;18.00;99.90;;;;;;4990786;28;20492;-73
2022/10/12 15:44:11;;;;;;;20.50;18.90;;;18.00;99.90;;;;;;4991167;28;20494;-74
2022/10/12 15:46:37;;;;;;;20.50;19.07;;;17.90;99.90;;;;;;4991326;28;20443;-74
2022/10/12 15:49:04;;;;;;;18.57;17.30;;;17.80;99.90;;;;;;4990923;28;20455;-74
2022/10/12 15:51:34;;;;;;;19.00;17.37;;;17.80;99.90;;;;;;4991199;28;20960;-74
2022/10/12 15:54:02;;;;;;;19.00;17.83;;;17.70;99.90;;;;;;4991317;28;20450;-74